Time;durP1;ratioP1;P1;durP2;ratioP2;P2;SDS_P1;SDS_P2;PMS_P1;PMS_P2;Temp;Humidity;BMP_temperature;BMP_pressure;BME280_temperature;BME280_humidity;BME280_pressure;Samples;Min_cycle;Max_cycle;Signal;HPM_P1;HPM_P2
2020/12/07 00:00:06;;;;;;;29.00;24.67;;;;;;;9.02;62.38;99644.06;6065344;29;20225;-49
2020/12/07 00:03:27;;;;;;;33.53;26.00;;;;;;;9.12;61.94;99645.56;6072316;29;20610;-49
2020/12/07 00:06:51;;;;;;;28.00;24.43;;;;;;;9.04;62.33;99644.88;6077168;29;20233;-50
2020/12/07 00:10:12;;;;;;;34.27;26.67;;;;;;;8.98;62.65;99645.03;6069841;29;20241;-48
2020/12/07 00:13:33;;;;;;;28.50;24.73;;;;;;;9.06;62.26;99645.72;6065733;29;20237;-48
2020/12/07 00:16:53;;;;;;;27.30;24.50;;;;;;;9.13;61.81;99649.88;6057385;29;20365;-52
2020/12/07 00:20:16;;;;;;;26.60;23.80;;;;;;;9.15;61.93;99648.13;6070757;29;20237;-53
2020/12/07 00:23:37;;;;;;;26.07;22.80;;;;;;;9.18;61.70;99654.97;6078642;29;20232;-52
2020/12/07 00:26:58;;;;;;;27.30;23.37;;;;;;;9.11;62.35;99659.47;6063978;29;20233;-50
2020/12/07 00:30:19;;;;;;;32.03;26.93;;;;;;;8.89;62.71;99668.56;6072696;29;20245;-52
2020/12/07 00:33:39;;;;;;;29.17;23.40;;;;;;;8.96;62.45;99660.63;6078202;29;20229;-49
2020/12/07 00:36:59;;;;;;;28.97;24.53;;;;;;;8.95;63.01;99643.31;6075602;29;20819;-47
2020/12/07 00:40:20;;;;;;;27.43;24.43;;;;;;;9.04;62.14;99645.72;6074178;29;20232;-52
2020/12/07 00:43:41;;;;;;;32.83;25.10;;;;;;;9.01;62.09;99650.13;6082065;29;20225;-47
2020/12/07 00:47:01;;;;;;;30.37;25.67;;;;;;;9.04;61.97;99645.72;6073434;29;20232;-53
2020/12/07 00:50:22;;;;;;;25.63;22.33;;;;;;;9.02;61.99;99636.28;6076539;29;20233;-51
2020/12/07 00:53:42;;;;;;;28.20;24.77;;;;;;;9.05;62.12;99638.78;6087331;29;20236;-47
2020/12/07 00:57:04;;;;;;;26.60;23.00;;;;;;;9.00;62.22;99635.47;6085966;29;20256;-45
2020/12/07 01:00:29;;;;;;;24.43;21.60;;;;;;;9.04;62.24;99614.56;6073131;29;20252;-49
2020/12/07 01:03:49;;;;;;;25.40;22.37;;;;;;;8.89;62.77;99614.91;6085902;29;20236;-49
2020/12/07 01:07:10;;;;;;;26.30;23.50;;;;;;;8.86;62.78;99617.56;6057891;29;20651;-52
2020/12/07 01:10:33;;;;;;;25.13;22.43;;;;;;;8.66;63.60;99612.78;6065642;29;20241;-50
2020/12/07 01:13:53;;;;;;;26.07;23.33;;;;;;;8.52;64.24;99602.69;6079826;29;20236;-52
2020/12/07 01:17:15;;;;;;;24.23;20.97;;;;;;;8.73;63.45;99606.59;6065798;29;20665;-53
2020/12/07 01:20:38;;;;;;;25.60;21.47;;;;;;;8.80;63.39;99592.59;6078027;29;20292;-53
2020/12/07 01:23:59;;;;;;;24.93;22.30;;;;;;;8.94;63.14;99609.63;6093232;29;20327;-48
2020/12/07 01:27:19;;;;;;;22.27;19.43;;;;;;;8.94;62.61;99601.84;6072318;29;20245;-51
2020/12/07 01:30:40;;;;;;;23.63;21.20;;;;;;;8.96;62.82;99608.69;6090092;29;20622;-54
2020/12/07 01:34:02;;;;;;;25.07;20.47;;;;;;;8.99;62.57;99612.97;6095982;29;20224;-48
2020/12/07 01:37:23;;;;;;;22.57;20.17;;;;;;;8.99;62.97;99610.38;6069701;29;20242;-50
2020/12/07 01:40:44;;;;;;;25.47;21.93;;;;;;;9.00;62.65;99606.88;6092571;29;20228;-51
2020/12/07 01:44:04;;;;;;;23.93;20.13;;;;;;;9.03;63.05;99599.00;6092438;29;20236;-46
2020/12/07 01:47:27;;;;;;;22.73;20.43;;;;;;;9.00;62.99;99596.50;6085014;29;20243;-54
2020/12/07 01:50:54;;;;;;;20.00;17.90;;;;;;;9.07;62.93;99598.94;6080174;29;20609;-51
2020/12/07 01:54:15;;;;;;;21.90;19.53;;;;;;;9.16;62.60;99602.22;6088966;29;20236;-48
2020/12/07 01:57:40;;;;;;;20.13;18.10;;;;;;;9.21;62.38;99580.44;6074965;29;22160;-51
2020/12/07 02:01:02;;;;;;;21.50;19.40;;;;;;;9.25;62.68;99587.25;6085061;29;20229;-51
2020/12/07 02:04:22;;;;;;;21.20;19.00;;;;;;;9.27;62.47;99588.06;6084296;29;20600;-46
2020/12/07 02:07:43;;;;;;;23.70;20.37;;;;;;;9.29;62.38;99561.22;6085447;29;20236;-50
2020/12/07 02:11:04;;;;;;;21.30;19.10;;;;;;;9.29;62.36;99577.66;6091299;29;20256;-50
2020/12/07 02:14:27;;;;;;;23.20;20.70;;;;;;;9.12;63.86;99567.66;6084716;29;20236;-51
2020/12/07 02:17:48;;;;;;;23.13;19.87;;;;;;;9.20;63.10;99563.13;6087877;29;20880;-46
2020/12/07 02:21:09;;;;;;;21.13;17.50;;;;;;;9.27;62.87;99562.09;6086656;29;20229;-53
2020/12/07 02:24:45;;;;;;;20.67;17.37;;;;;;;9.27;63.05;99569.03;6075817;29;20256;-47
2020/12/07 02:28:18;;;;;;;20.50;17.93;;;;;;;9.25;63.19;99569.06;6089270;29;20596;-48
2020/12/07 02:31:39;;;;;;;21.03;18.43;;;;;;;9.31;63.02;99565.47;6072537;29;20543;-52
2020/12/07 02:34:59;;;;;;;20.03;17.93;;;;;;;9.26;63.77;99562.97;6078421;29;20229;-48
2020/12/07 02:38:26;;;;;;;18.97;17.07;;;;;;;9.29;63.30;99566.41;6089632;29;20657;-49
2020/12/07 02:41:47;;;;;;;19.23;17.23;;;;;;;9.24;63.44;99567.34;6085745;29;20764;-50
2020/12/07 02:45:11;;;;;;;20.93;18.70;;;;;;;9.29;63.84;99567.25;6077648;29;20232;-52
2020/12/07 02:48:32;;;;;;;20.67;18.57;;;;;;;9.26;64.10;99567.31;6089888;29;20244;-47
2020/12/07 02:51:57;;;;;;;19.23;17.23;;;;;;;9.37;63.56;99564.47;6076936;29;20352;-48
2020/12/07 02:55:24;;;;;;;18.97;16.97;;;;;;;9.40;63.33;99562.66;6077460;29;20312;-52
2020/12/07 02:58:46;;;;;;;18.67;16.60;;;;;;;9.42;62.84;99544.41;6089418;29;20257;-47
2020/12/07 03:02:07;;;;;;;19.20;17.17;;;;;;;9.34;63.96;99528.16;6078275;29;20225;-48
2020/12/07 03:05:28;;;;;;;19.83;16.90;;;;;;;9.42;63.93;99523.63;6075953;29;20229;-50
2020/12/07 03:08:52;;;;;;;19.00;17.10;;;;;;;9.50;63.70;99526.03;6088723;29;20237;-49
2020/12/07 03:12:16;;;;;;;20.40;17.00;;;;;;;9.50;63.77;99518.25;6075412;29;20260;-49
2020/12/07 03:15:37;;;;;;;19.40;17.37;;;;;;;9.56;63.69;99538.91;6074383;29;20229;-47
2020/12/07 03:19:01;;;;;;;19.17;16.83;;;;;;;9.56;63.37;99531.94;6087954;29;20253;-48
2020/12/07 03:22:21;;;;;;;19.27;17.17;;;;;;;9.55;63.69;99522.44;6084604;29;20240;-48
2020/12/07 03:25:42;;;;;;;19.00;17.00;;;;;;;9.53;64.18;99506.03;6088205;29;20241;-51
2020/12/07 03:29:04;;;;;;;16.83;15.10;;;;;;;9.54;63.48;99499.94;6088170;29;20230;-49
2020/12/07 03:32:28;;;;;;;17.97;16.07;;;;;;;9.55;63.52;99487.81;6087339;29;20229;-48
2020/12/07 03:35:49;;;;;;;18.80;16.97;;;;;;;9.55;63.86;99487.81;6088879;29;20237;-48
2020/12/07 03:39:09;;;;;;;19.17;17.30;;;;;;;9.57;63.80;99488.63;6095616;29;20510;-51
2020/12/07 03:42:33;;;;;;;17.27;15.47;;;;;;;9.62;63.71;99477.22;6074911;29;20237;-45
2020/12/07 03:45:58;;;;;;;17.67;15.83;;;;;;;9.64;63.27;99472.81;6086678;29;20260;-49
2020/12/07 03:49:20;;;;;;;17.00;14.33;;;;;;;9.68;63.74;99464.94;6087914;29;20711;-49
2020/12/07 03:52:43;;;;;;;17.20;15.27;;;;;;;9.69;63.52;99471.84;6065321;29;20607;-51
2020/12/07 03:56:11;;;;;;;15.80;14.10;;;;;;;9.70;63.45;99478.75;6064519;29;20844;-52
2020/12/07 03:59:34;;;;;;;15.67;14.07;;;;;;;9.70;63.69;99482.19;6086173;29;20229;-49
2020/12/07 04:02:56;;;;;;;18.10;16.30;;;;;;;9.59;64.02;99492.88;6066651;29;20237;-49
2020/12/07 04:06:26;;;;;;;17.53;15.17;;;;;;;9.56;64.91;99485.16;6067945;29;20233;-50
2020/12/07 04:09:47;;;;;;;30.13;27.13;;;;;;;9.66;64.50;99483.19;6070388;29;20244;-49
2020/12/07 04:13:07;;;;;;;21.07;17.80;;;;;;;9.69;63.83;99477.88;6075749;29;20237;-48
2020/12/07 04:16:28;;;;;;;18.83;16.50;;;;;;;9.73;63.92;99473.47;6091445;29;20340;-50
2020/12/07 04:19:49;;;;;;;16.73;15.13;;;;;;;9.76;63.23;99479.44;6080345;29;20229;-49
2020/12/07 04:23:10;;;;;;;16.27;14.57;;;;;;;9.74;63.68;99472.56;6065952;29;20225;-49
2020/12/07 04:26:30;;;;;;;16.33;14.63;;;;;;;9.76;63.57;99483.78;6072085;29;20508;-49
2020/12/07 04:29:51;;;;;;;17.17;15.53;;;;;;;9.74;63.97;99481.22;6072923;29;20604;-51
2020/12/07 04:33:11;;;;;;;17.70;15.73;;;;;;;9.74;63.73;99483.81;6073218;29;20237;-46
2020/12/07 04:36:32;;;;;;;15.83;14.23;;;;;;;9.73;63.44;99494.25;6078423;29;20229;-46
2020/12/07 04:39:53;;;;;;;15.80;14.40;;;;;;;9.76;63.41;99484.63;6073374;29;20594;-52
2020/12/07 04:43:14;;;;;;;18.10;16.23;;;;;;;9.55;64.39;99490.41;6060043;29;20240;-47
2020/12/07 04:46:35;;;;;;;15.80;14.23;;;;;;;9.46;64.61;99496.69;6065091;29;20236;-51
2020/12/07 04:49:57;;;;;;;15.83;14.33;;;;;;;9.46;64.68;99496.69;6080929;29;20595;-47
2020/12/07 04:53:18;;;;;;;16.43;14.63;;;;;;;9.53;64.16;99493.03;6073684;29;20241;-50
2020/12/07 04:56:39;;;;;;;20.27;15.23;;;;;;;9.31;64.88;99481.50;6073934;29;20264;-52
2020/12/07 05:00:00;;;;;;;17.40;15.33;;;;;;;9.09;66.00;99484.59;6070620;29;20257;-48
2020/12/07 05:03:20;;;;;;;17.10;15.30;;;;;;;9.08;65.76;99490.69;6072101;29;20228;-48
2020/12/07 05:06:41;;;;;;;17.00;15.17;;;;;;;9.07;66.05;99484.66;6072282;29;20604;-52
2020/12/07 05:10:12;;;;;;;15.83;14.23;;;;;;;9.05;66.22;99477.78;6073949;29;20327;-54
2020/12/07 05:13:38;;;;;;;18.77;16.43;;;;;;;9.36;65.45;99469.22;6072113;29;20237;-51
2020/12/07 05:16:58;;;;;;;16.83;15.13;;;;;;;9.49;64.63;99459.38;6073855;29;20234;-51
2020/12/07 05:20:19;;;;;;;20.13;16.57;;;;;;;9.52;64.95;99444.56;6072980;29;20344;-49
2020/12/07 05:23:41;;;;;;;15.67;14.07;;;;;;;9.58;64.39;99444.41;6067662;29;20300;-51
2020/12/07 05:27:02;;;;;;;16.27;14.10;;;;;;;9.59;64.77;99459.09;6067377;29;20225;-50
2020/12/07 05:30:26;;;;;;;17.70;15.80;;;;;;;9.48;64.93;99465.44;6074598;29;20312;-49
2020/12/07 05:33:47;;;;;;;17.43;15.63;;;;;;;9.53;64.62;99467.03;6072580;29;20229;-51
2020/12/07 05:37:07;;;;;;;16.53;15.00;;;;;;;9.54;64.44;99479.16;6076511;29;20240;-47
2020/12/07 05:40:27;;;;;;;17.63;15.83;;;;;;;9.54;64.36;99479.16;6069452;29;20300;-51
2020/12/07 05:43:51;;;;;;;17.20;15.37;;;;;;;9.43;64.79;99460.38;6074812;29;20331;-46
2020/12/07 05:47:13;;;;;;;16.67;14.17;;;;;;;9.46;65.02;99460.31;6070027;29;20229;-49
2020/12/07 05:50:37;;;;;;;18.27;14.73;;;;;;;9.43;64.67;99453.44;6073262;29;20265;-46
2020/12/07 05:53:59;;;;;;;16.73;14.17;;;;;;;9.49;64.79;99462.81;6069742;29;20233;-49
2020/12/07 05:57:26;;;;;;;16.00;14.30;;;;;;;9.52;64.26;99449.75;6073176;29;20237;-47
2020/12/07 06:00:47;;;;;;;16.88;14.48;;;;;;;9.59;64.62;99433.09;6080195;29;20705;-48
2020/12/07 06:04:08;;;;;;;16.13;14.43;;;;;;;9.69;64.33;99435.44;6068642;29;20233;-51
2020/12/07 06:07:34;;;;;;;16.50;14.57;;;;;;;9.30;65.18;99459.00;6076085;29;20233;-51
2020/12/07 06:10:58;;;;;;;15.93;13.10;;;;;;;9.49;64.80;99473.22;6073738;29;20664;-48
2020/12/07 06:14:20;;;;;;;16.50;14.73;;;;;;;9.55;64.69;99470.44;6089821;29;20627;-49
2020/12/07 06:17:48;;;;;;;16.33;14.87;;;;;;;9.43;65.04;99457.78;6077433;29;20232;-52
2020/12/07 06:21:12;;;;;;;16.03;14.43;;;;;;;9.38;65.15;99457.03;6076376;29;20232;-50
2020/12/07 06:24:40;;;;;;;15.30;13.77;;;;;;;9.44;64.95;99447.38;6076882;29;20646;-47
2020/12/07 06:28:01;;;;;;;20.47;14.17;;;;;;;9.38;64.80;99438.84;6072756;29;20237;-50
2020/12/07 06:31:21;;;;;;;20.83;14.70;;;;;;;9.47;64.92;99436.03;6073217;29;20324;-49
2020/12/07 06:34:42;;;;;;;16.03;13.43;;;;;;;9.55;64.85;99454.00;6076023;29;20640;-50
2020/12/07 06:38:03;;;;;;;17.40;13.47;;;;;;;9.48;65.01;99457.66;6075985;29;20619;-47
2020/12/07 06:41:32;;;;;;;18.07;14.90;;;;;;;9.52;64.59;99447.16;6075914;29;20233;-47
2020/12/07 06:44:53;;;;;;;14.67;12.30;;;;;;;9.73;64.00;99437.06;6076590;29;20248;-49
2020/12/07 06:48:16;;;;;;;16.93;12.87;;;;;;;9.66;64.01;99424.25;6067024;29;20221;-51
2020/12/07 06:51:39;;;;;;;16.10;13.67;;;;;;;9.66;63.96;99442.44;6073838;29;20544;-48
2020/12/07 06:55:08;;;;;;;16.50;13.37;;;;;;;9.73;63.71;99444.88;6075216;29;20232;-48
2020/12/07 06:58:32;;;;;;;17.23;15.03;;;;;;;9.57;64.27;99460.88;6076536;29;20835;-49
2020/12/07 07:01:53;;;;;;;17.42;15.63;;;;;;;9.51;64.42;99458.44;6079039;29;20744;-53
2020/12/07 07:05:14;;;;;;;16.40;13.97;;;;;;;9.57;64.59;99460.88;6074086;29;20229;-49
2020/12/07 07:08:37;;;;;;;18.40;13.97;;;;;;;9.52;64.45;99469.69;6081365;29;20233;-49
2020/12/07 07:11:58;;;;;;;15.57;13.97;;;;;;;9.61;64.50;99474.63;6072757;29;20245;-50
2020/12/07 07:15:18;;;;;;;15.53;13.13;;;;;;;9.45;64.56;99474.19;6071613;29;20334;-48
2020/12/07 07:18:41;;;;;;;16.97;13.70;;;;;;;9.39;64.90;99471.75;6076718;29;20237;-51
2020/12/07 07:22:02;;;;;;;18.00;14.57;;;;;;;9.46;64.90;99475.91;6078033;29;20252;-47
2020/12/07 07:25:29;;;;;;;17.47;15.50;;;;;;;9.38;64.79;99488.22;6073727;29;20241;-53
2020/12/07 07:28:51;;;;;;;22.47;14.67;;;;;;;9.57;64.34;99484.25;6079197;29;20249;-52
2020/12/07 07:32:13;;;;;;;18.47;14.97;;;;;;;9.46;64.57;99481.97;6076257;29;20234;-48
2020/12/07 07:35:34;;;;;;;20.67;15.10;;;;;;;9.57;64.16;99481.66;6073890;29;20233;-50
2020/12/07 07:38:55;;;;;;;18.97;16.97;;;;;;;9.40;64.35;99486.44;6076491;29;20623;-50
2020/12/07 07:42:17;;;;;;;16.23;14.53;;;;;;;9.57;64.32;99483.41;6074250;29;22660;-51
2020/12/07 07:45:39;;;;;;;18.27;14.23;;;;;;;9.78;63.61;99488.03;6074226;29;20237;-48
2020/12/07 07:49:14;;;;;;;17.07;14.33;;;;;;;9.71;64.16;99490.84;6074143;29;20224;-51
2020/12/07 08:00:36;;;;;;;17.57;14.57;;;;;;;9.53;64.30;99497.38;6066605;29;20351;-50
2020/12/07 08:19:21;;;;;;;17.30;13.53;;;;;;;10.09;66.56;99513.22;6064945;29;20230;-49
2020/12/07 08:22:41;;;;;;;14.27;11.60;;;;;;;10.46;66.36;99513.94;6069782;29;20749;-45
2020/12/07 08:26:03;;;;;;;16.07;13.77;;;;;;;10.51;63.64;99520.72;6074088;29;20265;-50
2020/12/07 08:29:23;;;;;;;18.87;15.23;;;;;;;10.14;63.33;99516.56;6061736;29;20244;-52
2020/12/07 08:32:44;;;;;;;16.33;14.40;;;;;;;10.03;63.61;99518.59;6068846;29;20237;-51
2020/12/07 08:36:07;;;;;;;16.63;14.73;;;;;;;9.97;63.99;99521.38;6069814;29;20233;-54
2020/12/07 08:39:27;;;;;;;17.87;15.00;;;;;;;9.68;64.11;99524.75;6072929;29;20615;-51
2020/12/07 08:42:47;;;;;;;17.03;15.27;;;;;;;9.77;64.12;99524.47;6070209;29;20332;-49
2020/12/07 08:46:14;;;;;;;18.97;14.77;;;;;;;9.66;64.41;99536.00;6072658;29;20248;-48
2020/12/07 08:49:37;;;;;;;15.37;13.67;;;;;;;9.82;64.05;99530.41;6070969;29;20271;-47
2020/12/07 08:52:57;;;;;;;17.27;14.63;;;;;;;9.61;64.34;99519.66;6070629;29;20252;-50
2020/12/07 08:56:18;;;;;;;16.30;14.67;;;;;;;9.84;64.02;99518.22;6060311;29;20262;-51
2020/12/07 08:59:38;;;;;;;16.20;14.17;;;;;;;9.81;63.77;99518.31;6079942;29;20240;-47
2020/12/07 09:02:59;;;;;;;19.40;14.87;;;;;;;9.93;63.94;99525.78;6069465;29;20229;-50
2020/12/07 09:06:20;;;;;;;16.67;14.57;;;;;;;9.57;64.46;99531.03;6067138;29;20225;-49
2020/12/07 09:09:41;;;;;;;13.27;10.73;;;;;;;9.63;67.29;99541.31;6074692;29;20225;-47
2020/12/07 09:13:02;;;;;;;12.73;11.47;;;;;;;10.06;68.56;99549.69;6062567;29;20241;-51
2020/12/07 09:16:23;;;;;;;19.53;15.47;;;;;;;10.06;65.49;99536.69;6073465;29;20231;-52
2020/12/07 09:19:44;;;;;;;19.67;15.50;;;;;;;9.83;64.89;99542.53;6073049;29;20237;-49
2020/12/07 09:23:05;;;;;;;17.23;14.93;;;;;;;9.63;64.79;99533.50;6069314;29;20225;-51
2020/12/07 09:26:25;;;;;;;18.13;15.13;;;;;;;9.72;64.51;99535.00;6065363;29;20232;-51
2020/12/07 09:29:45;;;;;;;20.27;15.60;;;;;;;9.95;63.84;99551.75;6067765;29;20653;-51
2020/12/07 09:33:06;;;;;;;17.67;15.77;;;;;;;9.88;64.28;99558.00;6065115;29;20252;-52
2020/12/07 09:36:26;;;;;;;17.13;14.70;;;;;;;9.24;66.28;99562.16;6063588;29;20257;-50
2020/12/07 09:39:47;;;;;;;18.73;14.73;;;;;;;9.38;65.74;99567.06;6070407;29;20615;-53
2020/12/07 09:43:08;;;;;;;15.63;13.37;;;;;;;9.42;66.11;99562.59;6064662;29;20238;-49
2020/12/07 09:46:28;;;;;;;20.23;14.97;;;;;;;9.39;66.17;99573.09;6071580;29;20232;-48
2020/12/07 09:49:49;;;;;;;18.27;14.47;;;;;;;9.16;67.20;99577.06;6071542;29;20236;-51
2020/12/07 09:53:11;;;;;;;17.73;15.90;;;;;;;9.10;67.43;99582.41;6062359;29;20229;-47
2020/12/07 09:56:32;;;;;;;18.77;16.83;;;;;;;9.10;67.16;99577.22;6072468;29;20240;-48
2020/12/07 09:59:53;;;;;;;19.10;17.13;;;;;;;9.00;67.25;99573.13;6076231;29;20236;-50
2020/12/07 10:03:13;;;;;;;19.37;17.30;;;;;;;8.96;67.64;99574.09;6070780;29;20264;-48
2020/12/07 10:06:34;;;;;;;21.20;17.50;;;;;;;8.84;68.17;99580.38;6068639;29;20262;-47
2020/12/07 10:09:54;;;;;;;20.07;17.37;;;;;;;8.98;67.73;99567.13;6077907;29;20610;-50
2020/12/07 10:13:15;;;;;;;20.80;18.70;;;;;;;9.34;66.19;99575.78;6078782;29;20237;-50
2020/12/07 10:16:35;;;;;;;18.90;16.97;;;;;;;9.55;65.48;99573.56;6076932;29;20257;-50
2020/12/07 10:19:56;;;;;;;21.43;18.07;;;;;;;9.19;66.43;99569.22;6076131;29;20222;-48
2020/12/07 10:23:16;;;;;;;21.23;17.03;;;;;;;9.32;66.45;99576.72;6065624;29;20265;-50
2020/12/07 10:26:36;;;;;;;21.83;19.60;;;;;;;9.09;66.74;99590.22;6077365;29;20328;-48
2020/12/07 10:29:58;;;;;;;21.90;19.57;;;;;;;9.15;66.28;99574.50;6089175;29;20276;-47
2020/12/07 10:33:18;;;;;;;21.77;19.57;;;;;;;8.93;67.20;99569.81;6077063;29;20260;-53
2020/12/07 10:36:38;;;;;;;22.63;20.27;;;;;;;9.07;66.45;99577.28;6074448;29;20328;-47
2020/12/07 10:39:58;;;;;;;21.93;19.77;;;;;;;9.05;66.52;99592.91;6061048;29;20236;-52
2020/12/07 10:43:19;;;;;;;21.50;19.43;;;;;;;8.93;66.52;99585.38;6067864;29;20236;-50
2020/12/07 10:46:40;;;;;;;22.00;19.67;;;;;;;9.12;65.70;99591.03;6063524;29;20233;-48
2020/12/07 10:50:01;;;;;;;21.73;19.33;;;;;;;9.09;65.87;99595.44;6062243;29;20237;-52
2020/12/07 10:53:22;;;;;;;22.57;20.27;;;;;;;8.74;66.62;99610.88;6051418;29;20229;-50
2020/12/07 10:56:44;;;;;;;24.27;21.67;;;;;;;8.73;66.55;99621.31;6060718;29;20229;-52
2020/12/07 11:00:05;;;;;;;24.60;22.03;;;;;;;8.89;66.45;99607.09;6059549;29;20230;-49
2020/12/07 11:03:27;;;;;;;24.00;21.43;;;;;;;8.92;65.49;99629.53;6062121;29;20237;-49
2020/12/07 11:06:49;;;;;;;25.43;22.73;;;;;;;8.81;66.08;99615.06;6083310;29;20221;-50
2020/12/07 11:10:10;;;;;;;25.17;22.67;;;;;;;8.85;65.38;99623.66;6069260;29;20238;-52
2020/12/07 11:13:32;;;;;;;25.00;22.30;;;;;;;8.32;66.13;99633.28;6070195;29;20233;-51
2020/12/07 11:16:52;;;;;;;24.50;21.97;;;;;;;8.07;66.66;99660.53;6072175;29;20312;-52
2020/12/07 11:20:14;;;;;;;25.37;22.83;;;;;;;8.54;65.54;99657.16;6079307;29;20332;-48
2020/12/07 11:23:34;;;;;;;26.03;21.17;;;;;;;8.20;65.37;99668.09;6070003;29;20339;-54
2020/12/07 11:26:55;;;;;;;23.83;21.33;;;;;;;8.15;65.36;99665.59;6073475;29;20238;-52
2020/12/07 11:30:15;;;;;;;24.20;21.60;;;;;;;8.13;64.71;99669.97;6077710;29;20233;-52
2020/12/07 11:33:36;;;;;;;26.17;21.30;;;;;;;8.44;63.93;99661.66;6075753;29;20236;-53
2020/12/07 11:36:57;;;;;;;24.83;22.17;;;;;;;8.21;64.77;99662.03;6068058;29;20237;-49
2020/12/07 11:40:27;;;;;;;24.17;20.33;;;;;;;8.54;63.97;99655.41;6077002;29;20583;-52
2020/12/07 11:43:51;;;;;;;27.70;23.17;;;;;;;8.69;63.39;99656.84;6074345;29;20228;-50
2020/12/07 11:47:13;;;;;;;21.37;18.03;;;;;;;8.58;62.92;99653.59;6073919;29;20268;-47
2020/12/07 11:50:34;;;;;;;24.70;22.07;;;;;;;8.74;62.76;99649.81;6074030;29;20233;-49
2020/12/07 11:53:55;;;;;;;30.43;23.10;;;;;;;8.52;62.69;99662.38;6064571;29;20232;-53
2020/12/07 11:57:16;;;;;;;27.53;22.90;;;;;;;8.52;63.48;99664.09;6068720;29;20238;-51
2020/12/07 12:00:36;;;;;;;25.90;20.53;;;;;;;8.48;63.93;99664.16;6062842;29;20233;-50
2020/12/07 12:03:57;;;;;;;27.43;22.37;;;;;;;8.37;63.38;99673.84;6068351;29;20233;-50
2020/12/07 12:07:18;;;;;;;26.87;20.80;;;;;;;8.01;63.91;99691.75;6067946;29;20355;-49
2020/12/07 12:10:39;;;;;;;26.80;22.00;;;;;;;8.28;63.66;99689.59;6068273;29;20233;-45
2020/12/07 12:14:01;;;;;;;23.87;19.37;;;;;;;8.29;63.20;99691.28;6063270;29;20245;-49
2020/12/07 12:17:22;;;;;;;25.37;19.80;;;;;;;8.29;63.24;99696.47;6063650;29;20237;-49
2020/12/07 12:20:46;;;;;;;25.03;21.33;;;;;;;8.17;63.29;99704.47;6081407;29;20237;-47
2020/12/07 12:24:07;;;;;;;23.83;20.63;;;;;;;8.22;63.10;99711.31;6074545;29;20240;-52
2020/12/07 12:27:28;;;;;;;25.13;21.20;;;;;;;8.00;63.43;99715.97;6059689;29;20623;-49
2020/12/07 12:30:49;;;;;;;23.97;21.47;;;;;;;8.08;62.86;99714.13;6082208;29;20244;-50
2020/12/07 12:34:10;;;;;;;20.67;18.57;;;;;;;8.01;62.90;99733.25;6075756;29;20627;-52
2020/12/07 12:37:30;;;;;;;21.37;18.67;;;;;;;7.96;63.12;99735.06;6064273;29;20233;-51
2020/12/07 12:40:51;;;;;;;18.77;16.77;;;;;;;7.74;63.21;99729.34;6086128;29;20233;-49
2020/12/07 12:44:12;;;;;;;19.40;17.50;;;;;;;8.09;62.32;99731.38;6081879;29;20527;-50
2020/12/07 12:47:33;;;;;;;16.63;14.93;;;;;;;7.58;63.48;99718.34;6062049;29;20502;-51
2020/12/07 12:50:53;;;;;;;17.13;14.10;;;;;;;8.00;62.50;99731.53;6082467;29;20241;-46
2020/12/07 12:54:14;;;;;;;14.87;13.20;;;;;;;8.03;62.19;99749.63;6074734;29;20624;-51
2020/12/07 12:57:35;;;;;;;14.70;13.20;;;;;;;7.80;62.62;99749.13;6064681;29;20249;-48
2020/12/07 13:00:56;;;;;;;15.23;13.67;;;;;;;7.79;63.01;99748.28;6082748;29;20240;-48
2020/12/07 13:04:16;;;;;;;13.77;12.27;;;;;;;8.23;65.53;99740.69;6074392;29;20309;-51
2020/12/07 13:07:37;;;;;;;16.80;14.47;;;;;;;8.32;62.19;99747.44;6057108;29;20225;-48
2020/12/07 13:10:57;;;;;;;13.00;11.63;;;;;;;8.32;62.06;99745.72;6078237;29;20760;-53
2020/12/07 13:14:17;;;;;;;11.80;10.70;;;;;;;7.95;62.12;99748.91;6073927;29;20255;-51
2020/12/07 13:17:41;;;;;;;11.97;10.77;;;;;;;8.11;61.82;99753.84;6054534;29;20237;-67
2020/12/07 13:21:06;;;;;;;11.40;9.77;;;;;;;8.23;61.86;99764.03;6073503;29;20278;-69
2020/12/07 13:24:34;;;;;;;10.80;9.80;;;;;;;8.22;61.70;99775.25;6059569;29;20237;-68
2020/12/07 13:28:00;;;;;;;9.97;9.10;;;;;;;7.92;62.31;99782.66;6064200;29;20722;-67
2020/12/07 13:31:20;;;;;;;9.73;8.83;;;;;;;7.94;61.83;99780.03;6075317;29;20229;-68
2020/12/07 13:34:41;;;;;;;9.90;9.07;;;;;;;8.21;61.76;99781.34;6069324;29;20363;-67
2020/12/07 13:38:02;;;;;;;9.60;8.80;;;;;;;8.29;61.33;99787.25;6058703;29;20248;-67
2020/12/07 13:41:22;;;;;;;9.50;8.03;;;;;;;8.02;61.96;99797.19;6067509;29;20316;-68
2020/12/07 13:44:43;;;;;;;9.97;7.93;;;;;;;8.15;62.01;99804.78;6064687;29;20233;-68
2020/12/07 13:48:03;;;;;;;9.07;8.27;;;;;;;8.03;61.88;99804.09;6060483;29;20228;-68
2020/12/07 13:51:30;;;;;;;8.53;7.63;;;;;;;8.20;61.70;99816.81;6071691;29;20233;-67
2020/12/07 13:54:50;;;;;;;11.03;9.37;;;;;;;7.99;62.07;99817.13;6052797;29;20328;-68
2020/12/07 13:58:10;;;;;;;9.73;8.87;;;;;;;7.84;62.54;99819.03;6048968;29;20237;-68
2020/12/07 14:01:30;;;;;;;9.83;8.93;;;;;;;8.24;61.68;99828.00;6056714;29;20225;-68
2020/12/07 14:04:57;;;;;;;10.47;9.37;;;;;;;8.42;61.54;99812.16;6067311;29;20327;-68
2020/12/07 14:08:18;;;;;;;10.23;9.33;;;;;;;8.11;61.70;99826.47;6058099;29;20233;-68
2020/12/07 14:11:38;;;;;;;9.40;8.60;;;;;;;8.01;62.53;99833.53;6074385;29;20233;-67
2020/12/07 14:15:00;;;;;;;10.50;9.50;;;;;;;8.00;62.36;99829.19;6065493;29;20233;-68
2020/12/07 14:18:23;;;;;;;7.47;6.73;;;;;;;8.28;68.81;99847.81;6062119;29;20264;-69
2020/12/07 14:40:13;;;;;;;9.27;8.40;;;;;;;7.99;62.59;99875.03;6065790;29;20612;-68
2020/12/07 14:43:34;;;;;;;9.20;8.40;;;;;;;8.11;62.04;99879.19;6068116;29;20244;-66
2020/12/07 14:46:56;;;;;;;8.83;8.03;;;;;;;8.07;62.28;99888.75;6072064;29;20241;-68
2020/12/07 14:50:20;;;;;;;8.63;7.80;;;;;;;8.35;61.48;99897.88;6069911;29;20230;-68
2020/12/07 14:53:41;;;;;;;8.70;8.00;;;;;;;8.09;62.05;99901.69;6070706;29;20236;-69
2020/12/07 14:57:17;;;;;;;8.97;8.20;;;;;;;8.23;62.11;99904.09;6074317;29;20229;-67
2020/12/07 15:01:03;;;;;;;10.80;9.80;;;;;;;8.20;63.17;99909.31;6076909;29;20790;-68
2020/12/07 15:08:25;;;;;;;10.10;9.30;;;;;;;7.91;62.78;99926.13;6057552;29;20514;-69
2020/12/07 15:11:57;;;;;;;9.67;8.77;;;;;;;8.00;62.57;99922.53;6064576;29;20634;-68
2020/12/07 15:15:19;;;;;;;8.67;7.97;;;;;;;7.88;62.59;99932.19;6072090;29;20355;-69
2020/12/07 15:18:46;;;;;;;8.63;7.83;;;;;;;8.05;62.33;99946.69;6061220;29;20224;-68
2020/12/07 15:22:08;;;;;;;8.33;7.63;;;;;;;8.08;62.33;99957.88;6049166;29;21647;-68
2020/12/07 15:25:29;;;;;;;8.40;7.60;;;;;;;8.20;61.90;99961.19;6069476;29;20249;-68
2020/12/07 15:28:49;;;;;;;7.53;6.93;;;;;;;7.77;62.71;99962.56;6065635;29;21562;-68
2020/12/07 15:32:09;;;;;;;8.10;7.33;;;;;;;8.15;62.14;99958.66;6064641;29;20269;-67
2020/12/07 15:35:30;;;;;;;8.23;7.53;;;;;;;8.38;61.49;99970.47;6070717;29;20245;-67
2020/12/07 15:38:50;;;;;;;7.80;7.23;;;;;;;8.02;62.04;99983.88;6065642;29;20236;-68
2020/12/07 15:42:12;;;;;;;7.87;7.03;;;;;;;8.32;61.62;99994.75;6061270;29;20256;-69
2020/12/07 15:45:32;;;;;;;7.23;6.63;;;;;;;8.53;60.66;99997.97;6063305;29;20233;-69
2020/12/07 15:48:54;;;;;;;6.87;6.37;;;;;;;8.24;61.62;100004.38;6063377;29;20241;-69
2020/12/07 15:52:15;;;;;;;7.43;6.73;;;;;;;8.31;61.42;100005.16;6060743;29;21216;-69
2020/12/07 15:55:35;;;;;;;7.77;7.13;;;;;;;8.31;61.54;100000.81;6061175;29;20340;-73
2020/12/07 15:58:56;;;;;;;7.40;6.70;;;;;;;7.99;62.20;100009.84;6066542;29;20525;-69
2020/12/07 16:02:18;;;;;;;7.33;6.73;;;;;;;8.46;61.12;100026.59;6057813;29;20237;-69
2020/12/07 16:05:39;;;;;;;7.53;6.83;;;;;;;8.41;61.24;100030.09;6061813;29;20252;-69
2020/12/07 16:09:01;;;;;;;8.63;7.73;;;;;;;8.17;61.73;100039.91;6060110;29;20233;-70
2020/12/07 16:12:21;;;;;;;6.90;6.30;;;;;;;8.02;62.52;100050.44;6054171;29;20237;-69
2020/12/07 16:15:42;;;;;;;6.90;6.30;;;;;;;8.13;62.01;100058.13;6064667;29;20346;-69
2020/12/07 16:19:02;;;;;;;6.57;6.07;;;;;;;7.92;62.81;100044.50;6072495;29;20233;-69
2020/12/07 16:22:22;;;;;;;6.77;6.17;;;;;;;8.13;62.37;100050.34;6053793;29;20237;-69
2020/12/07 16:25:43;;;;;;;6.20;5.63;;;;;;;8.41;61.81;100053.44;6076596;29;20344;-69